Time;durP1;ratioP1;P1;durP2;ratioP2;P2;SDS_P1;SDS_P2;PMS_P1;PMS_P2;Temp;Humidity;BMP_temperature;BMP_pressure;BME280_temperature;BME280_humidity;BME280_pressure;Samples;Min_cycle;Max_cycle;Signal;HPM_P1;HPM_P2
2021/10/12 00:00:50;;;;;;;;;;;;;;;19.01;58.76;100334.78;2077859;28;20035;-48
2021/10/12 00:01:51;;;;;;;;;;;;;;;19.00;58.72;100330.31;2082310;28;20017;-48
2021/10/12 00:02:51;;;;;;;;;;;;;;;19.00;58.72;100327.59;2084610;28;19931;-48
2021/10/12 00:03:52;;;;;;;;;;;;;;;19.00;58.66;100332.19;2077966;28;19923;-48
2021/10/12 00:04:52;;;;;;;;;;;;;;;19.01;58.81;100333.91;2078682;28;20227;-48
2021/10/12 00:05:52;;;;;;;;;;;;;;;18.99;58.72;100330.47;2078036;28;19959;-49
2021/10/12 00:06:52;;;;;;;;;;;;;;;19.00;58.65;100334.94;2079297;28;20329;-48
2021/10/12 00:07:53;;;;;;;;;;;;;;;19.00;58.74;100329.47;2078313;28;19913;-48
2021/10/12 00:08:53;;;;;;;;;;;;;;;18.99;58.65;100335.94;2078251;28;19913;-51
2021/10/12 00:09:54;;;;;;;;;;;;;;;18.99;58.75;100334.06;2078015;28;20897;-48
2021/10/12 00:10:54;;;;;;;;;;;;;;;19.01;58.68;100339.38;2078109;28;19919;-48
2021/10/12 00:11:55;;;;;;;;;;;;;;;19.00;58.70;100332.19;2083075;28;20428;-48
2021/10/12 00:12:55;;;;;;;;;;;;;;;18.99;58.67;100330.47;2078324;28;19923;-48
2021/10/12 00:13:56;;;;;;;;;;;;;;;18.99;58.73;100330.47;2087899;28;19916;-49
2021/10/12 00:14:56;;;;;;;;;;;;;;;18.99;58.70;100335.94;2084425;28;20188;-48
2021/10/12 00:15:56;;;;;;;;;;;;;;;18.99;58.66;100336.81;2089331;28;20006;-48
2021/10/12 00:16:57;;;;;;;;;;;;;;;18.99;58.68;100330.47;2084639;28;20301;-48
2021/10/12 00:17:57;;;;;;;;;;;;;;;18.99;58.65;100338.69;2085834;28;20418;-48
2021/10/12 00:18:57;;;;;;;;;;;;;;;18.99;58.72;100330.47;2086514;28;19997;-48
2021/10/12 00:19:58;;;;;;;;;;;;;;;19.01;58.68;100336.63;2083341;28;19913;-48
2021/10/12 00:20:58;;;;;;;;;;;;;;;19.00;58.88;100337.66;2085459;28;19938;-48
2021/10/12 00:21:58;;;;;;;;;;;;;;;18.99;58.91;100336.81;2085071;28;19919;-48
2021/10/12 00:22:59;;;;;;;;;;;;;;;18.99;58.85;100331.34;2074004;28;19916;-43
2021/10/12 00:24:00;;;;;;;;;;;;;;;18.99;58.67;100335.94;2086685;28;19912;-40
2021/10/12 00:25:00;;;;;;;;;;;;;;;18.99;58.68;100334.06;2084991;28;19920;-41
2021/10/12 00:26:00;;;;;;;;;;;;;;;18.98;58.64;100326.00;2083506;28;20423;-41
2021/10/12 00:27:01;;;;;;;;;;;;;;;18.99;58.65;100325.88;2086600;28;20305;-40
2021/10/12 00:28:01;;;;;;;;;;;;;;;18.98;58.73;100326.88;2084596;28;19909;-40
2021/10/12 00:29:02;;;;;;;;;;;;;;;18.99;58.63;100335.94;2085923;28;19955;-40
2021/10/12 00:30:03;;;;;;;;;;;;;;;18.98;58.63;100324.13;2084096;28;19908;-48
2021/10/12 00:31:04;;;;;;;;;;;;;;;18.98;58.67;100326.00;2083968;28;19920;-48
2021/10/12 00:32:04;;;;;;;;;;;;;;;18.98;58.71;100328.75;2087048;28;20315;-48
2021/10/12 00:33:05;;;;;;;;;;;;;;;18.98;58.67;100328.75;2082051;28;19986;-48
2021/10/12 00:34:05;;;;;;;;;;;;;;;18.99;58.63;100335.94;2076986;28;19958;-48
2021/10/12 00:35:05;;;;;;;;;;;;;;;18.98;58.65;100329.59;2085228;28;19913;-48
2021/10/12 00:36:06;;;;;;;;;;;;;;;18.97;58.61;100333.34;2080978;28;19961;-48
2021/10/12 00:37:06;;;;;;;;;;;;;;;18.98;58.57;100336.94;2077580;28;19917;-48
2021/10/12 00:38:07;;;;;;;;;;;;;;;18.97;58.68;100335.22;2078873;28;20049;-48
2021/10/12 00:39:07;;;;;;;;;;;;;;;18.98;58.76;100334.19;2075712;28;20495;-48
2021/10/12 00:40:08;;;;;;;;;;;;;;;18.97;58.58;100333.34;2079281;28;19905;-48
2021/10/12 00:41:08;;;;;;;;;;;;;;;18.98;58.67;100334.19;2077162;28;19916;-48
2021/10/12 00:42:09;;;;;;;;;;;;;;;18.97;58.72;100327.03;2078862;28;19917;-48
2021/10/12 00:43:09;;;;;;;;;;;;;;;18.97;58.71;100327.03;2084549;28;19904;-48
2021/10/12 00:44:09;;;;;;;;;;;;;;;18.97;58.65;100330.63;2086027;28;19925;-48
2021/10/12 00:45:11;;;;;;;;;;;;;;;18.97;58.73;100330.63;2086635;28;19924;-48
2021/10/12 00:46:11;;;;;;;;;;;;;;;18.96;58.76;100322.56;2085160;28;20284;-50
2021/10/12 00:47:11;;;;;;;;;;;;;;;18.97;58.77;100321.56;2083803;28;19989;-48
2021/10/12 00:48:12;;;;;;;;;;;;;;;18.96;58.70;100326.16;2077409;28;20513;-48
2021/10/12 00:49:13;;;;;;;;;;;;;;;18.96;58.75;100326.16;2080262;28;20107;-48
2021/10/12 00:50:13;;;;;;;;;;;;;;;18.96;58.71;100322.56;2084997;28;19938;-48
2021/10/12 00:51:13;;;;;;;;;;;;;;;18.95;58.65;100318.09;2078790;28;19917;-48
2021/10/12 00:52:13;;;;;;;;;;;;;;;18.96;58.69;100320.72;2078345;28;20464;-48
2021/10/12 00:53:14;;;;;;;;;;;;;;;18.96;58.70;100326.16;2086163;28;19955;-48
2021/10/12 00:54:14;;;;;;;;;;;;;;;18.95;58.68;100324.44;2083948;28;19947;-48
2021/10/12 00:55:15;;;;;;;;;;;;;;;18.96;58.68;100330.75;2084087;28;19962;-48
2021/10/12 00:56:15;;;;;;;;;;;;;;;18.96;58.63;100319.81;2086466;28;19989;-48
2021/10/12 00:57:15;;;;;;;;;;;;;;;18.96;58.69;100330.75;2084962;28;19923;-48
2021/10/12 00:58:16;;;;;;;;;;;;;;;18.95;58.74;100320.84;2084327;28;19916;-48
2021/10/12 00:59:16;;;;;;;;;;;;;;;18.95;58.74;100329.03;2085863;28;20347;-48
2021/10/12 01:00:17;;;;;;;;;;;;;;;18.96;58.74;100319.81;2082773;28;19973;-48
2021/10/12 01:01:17;;;;;;;;;;;;;;;18.94;58.71;100311.78;2078593;28;19916;-48
2021/10/12 01:02:17;;;;;;;;;;;;;;;18.95;58.70;100309.91;2084230;28;19994;-48
2021/10/12 01:03:18;;;;;;;;;;;;;;;18.94;58.78;100321.84;2087476;28;20214;-48
2021/10/12 01:04:18;;;;;;;;;;;;;;;18.94;58.64;100316.41;2077802;28;20047;-48
2021/10/12 01:05:18;;;;;;;;;;;;;;;18.94;58.66;100311.78;2079585;28;20341;-48
2021/10/12 01:06:19;;;;;;;;;;;;;;;18.95;58.71;100312.66;2080598;28;19959;-48
2021/10/12 01:07:19;;;;;;;;;;;;;;;18.94;58.65;100310.94;2077032;28;19923;-48
2021/10/12 01:08:20;;;;;;;;;;;;;;;18.94;58.83;100310.94;2078559;28;19957;-41
2021/10/12 01:09:20;;;;;;;;;;;;;;;18.95;58.74;100318.97;2078958;28;20343;-40
2021/10/12 01:10:21;;;;;;;;;;;;;;;18.95;58.76;100318.09;2081527;28;19917;-40
2021/10/12 01:11:21;;;;;;;;;;;;;;;18.95;58.69;100320.84;2083525;28;20458;-40
2021/10/12 01:12:22;;;;;;;;;;;;;;;18.95;58.65;100315.38;2085711;28;20678;-40
2021/10/12 01:13:22;;;;;;;;;;;;;;;18.94;58.79;100317.25;2080343;28;19921;-41
2021/10/12 01:14:23;;;;;;;;;;;;;;;18.94;58.68;100316.41;2077653;28;19993;-41
2021/10/12 01:15:23;;;;;;;;;;;;;;;18.94;58.73;100313.66;2085501;28;19912;-40
2021/10/12 01:16:23;;;;;;;;;;;;;;;18.94;58.72;100316.41;2084596;28;20339;-39
2021/10/12 01:17:24;;;;;;;;;;;;;;;18.94;58.69;100311.78;2085829;28;19919;-41
2021/10/12 01:18:24;;;;;;;;;;;;;;;18.95;58.71;100307.19;2084954;28;19940;-41
2021/10/12 01:19:25;;;;;;;;;;;;;;;18.93;58.63;100311.91;2084762;28;19930;-41
2021/10/12 01:20:25;;;;;;;;;;;;;;;18.95;58.63;100312.66;2085632;28;19916;-41
2021/10/12 01:21:30;;;;;;;;;;;;;;;18.94;58.72;100310.94;2081136;28;19917;-41
2021/10/12 01:22:30;;;;;;;;;;;;;;;18.93;58.67;100309.19;2085803;28;19981;-41
2021/10/12 01:23:31;;;;;;;;;;;;;;;18.93;58.72;100309.19;2081668;28;19962;-41
2021/10/12 01:24:31;;;;;;;;;;;;;;;18.93;58.65;100311.91;2082706;28;19923;-41
2021/10/12 01:25:31;;;;;;;;;;;;;;;18.93;58.72;100304.59;2085061;28;20420;-41
2021/10/12 01:26:33;;;;;;;;;;;;;;;18.92;58.69;100311.06;2082324;28;20755;-41
2021/10/12 01:27:33;;;;;;;;;;;;;;;18.93;58.68;100312.78;2085550;28;19924;-41
2021/10/12 01:28:33;;;;;;;;;;;;;;;18.92;58.61;100307.47;2081847;28;19960;-41
2021/10/12 01:29:34;;;;;;;;;;;;;;;18.93;58.68;100304.59;2084482;28;19947;-41
2021/10/12 01:30:35;;;;;;;;;;;;;;;18.93;58.69;100310.03;2085205;28;20347;-41
2021/10/12 01:31:36;;;;;;;;;;;;;;;18.93;58.76;100309.19;2083487;28;19939;-41
2021/10/12 01:32:37;;;;;;;;;;;;;;;18.92;58.55;100307.47;2084175;28;19917;-41
2021/10/12 01:33:37;;;;;;;;;;;;;;;18.92;58.70;100315.66;2082594;28;19935;-41
2021/10/12 01:34:38;;;;;;;;;;;;;;;18.92;58.67;100305.59;2078562;28;20634;-41
2021/10/12 01:35:38;;;;;;;;;;;;;;;18.93;58.71;100307.31;2083215;28;19912;-41
2021/10/12 01:36:39;;;;;;;;;;;;;;;18.93;58.74;100309.19;2083249;28;20230;-41
2021/10/12 01:37:39;;;;;;;;;;;;;;;18.93;58.67;100309.19;2084171;28;19999;-41
2021/10/12 01:38:40;;;;;;;;;;;;;;;18.92;58.78;100302.88;2081875;28;19989;-41
2021/10/12 01:39:40;;;;;;;;;;;;;;;18.93;58.79;100303.72;2083611;28;19912;-41
2021/10/12 01:40:40;;;;;;;;;;;;;;;18.92;58.65;100293.81;2084338;28;19956;-41
2021/10/12 01:41:42;;;;;;;;;;;;;;;18.91;58.72;100301.13;2082839;28;19917;-41
2021/10/12 01:42:42;;;;;;;;;;;;;;;18.92;58.72;100291.09;2084373;28;20437;-41
2021/10/12 01:43:43;;;;;;;;;;;;;;;18.91;58.67;100294.81;2085944;28;19920;-41
2021/10/12 01:44:44;;;;;;;;;;;;;;;18.90;58.68;100290.38;2084526;28;20203;-41
2021/10/12 01:45:45;;;;;;;;;;;;;;;18.91;58.74;100289.34;2078293;28;19956;-41
2021/10/12 01:46:45;;;;;;;;;;;;;;;18.90;58.75;100288.50;2083753;28;19973;-42
2021/10/12 01:47:46;;;;;;;;;;;;;;;18.91;58.83;100289.34;2079618;28;19931;-41
2021/10/12 01:48:46;;;;;;;;;;;;;;;18.90;58.70;100290.38;2080520;28;19917;-42
2021/10/12 01:49:47;;;;;;;;;;;;;;;18.91;58.72;100289.34;2077466;28;19923;-41
2021/10/12 01:50:47;;;;;;;;;;;;;;;18.91;58.82;100292.06;2080872;28;19917;-41
2021/10/12 01:51:47;;;;;;;;;;;;;;;18.91;58.79;100278.41;2083889;28;19943;-41
2021/10/12 01:52:48;;;;;;;;;;;;;;;18.92;58.89;100285.63;2085844;28;20330;-41
2021/10/12 01:53:48;;;;;;;;;;;;;;;18.91;58.73;100283.88;2078719;28;20224;-42
2021/10/12 01:54:48;;;;;;;;;;;;;;;18.91;58.73;100275.69;2084239;28;19916;-43
2021/10/12 01:55:48;;;;;;;;;;;;;;;18.91;58.73;100281.16;2083392;28;19916;-42
2021/10/12 01:56:49;;;;;;;;;;;;;;;18.90;58.72;100276.72;2082273;28;19922;-41
2021/10/12 01:57:50;;;;;;;;;;;;;;;18.91;58.81;100275.69;2085308;28;19916;-41
2021/10/12 01:58:50;;;;;;;;;;;;;;;18.90;58.81;100273.97;2083380;28;19938;-40
2021/10/12 01:59:51;;;;;;;;;;;;;;;18.90;58.80;100273.97;2084942;28;19905;-42
2021/10/12 02:00:51;;;;;;;;;;;;;;;18.90;58.64;100277.56;2084717;28;19917;-42
2021/10/12 02:01:51;;;;;;;;;;;;;;;18.90;58.66;100277.56;2082334;28;19912;-42
2021/10/12 02:02:52;;;;;;;;;;;;;;;18.90;58.80;100282.16;2085417;28;19917;-41
2021/10/12 02:03:52;;;;;;;;;;;;;;;18.91;58.76;100283.88;2083498;28;19920;-42
2021/10/12 02:04:53;;;;;;;;;;;;;;;18.91;58.75;100278.41;2082860;28;19912;-42
2021/10/12 02:05:53;;;;;;;;;;;;;;;18.89;58.60;100275.84;2086006;28;19971;-41
2021/10/12 02:06:53;;;;;;;;;;;;;;;18.91;58.73;100278.41;2082321;28;19912;-42
2021/10/12 02:07:54;;;;;;;;;;;;;;;18.90;58.75;100271.25;2084973;28;20013;-42
2021/10/12 02:08:54;;;;;;;;;;;;;;;18.91;58.70;100272.97;2079091;28;19999;-46
2021/10/12 02:09:54;;;;;;;;;;;;;;;18.91;58.75;100275.69;2084306;28;19917;-47
2021/10/12 02:10:55;;;;;;;;;;;;;;;18.89;58.69;100270.38;2087722;28;20652;-47
2021/10/12 02:11:55;;;;;;;;;;;;;;;18.90;58.74;100268.50;2077542;28;20030;-48
2021/10/12 02:12:55;;;;;;;;;;;;;;;18.90;58.65;100265.78;2077723;28;20367;-48
2021/10/12 02:13:56;;;;;;;;;;;;;;;18.89;58.80;100270.38;2087083;28;19923;-48
2021/10/12 02:14:57;;;;;;;;;;;;;;;18.89;58.73;100266.75;2082931;28;19915;-48
2021/10/12 02:15:57;;;;;;;;;;;;;;;18.89;58.77;100270.38;2085120;28;20552;-48
2021/10/12 02:16:58;;;;;;;;;;;;;;;18.89;58.75;100275.84;2083253;28;19916;-49
2021/10/12 02:17:59;;;;;;;;;;;;;;;18.90;58.82;100273.97;2084822;28;19956;-49
2021/10/12 02:18:59;;;;;;;;;;;;;;;18.89;58.86;100264.03;2085048;28;20341;-48
2021/10/12 02:19:59;;;;;;;;;;;;;;;18.89;58.86;100264.03;2082535;28;19912;-49
2021/10/12 02:21:00;;;;;;;;;;;;;;;18.89;58.79;100259.47;2082506;28;19959;-48
2021/10/12 02:22:00;;;;;;;;;;;;;;;18.90;58.84;100254.84;2082465;28;19916;-49
2021/10/12 02:23:00;;;;;;;;;;;;;;;18.89;58.81;100253.13;2087009;28;19931;-48
2021/10/12 02:24:01;;;;;;;;;;;;;;;18.89;58.76;100253.13;2084775;28;20434;-48
2021/10/12 02:25:03;;;;;;;;;;;;;;;18.88;58.85;100262.31;2083456;28;19916;-48
2021/10/12 02:26:03;;;;;;;;;;;;;;;18.89;58.79;100258.56;2082463;28;20279;-49
2021/10/12 02:27:03;;;;;;;;;;;;;;;18.89;58.84;100258.56;2083235;28;19963;-49
2021/10/12 02:28:04;;;;;;;;;;;;;;;18.89;58.83;100253.13;2081222;28;19917;-48
2021/10/12 02:29:04;;;;;;;;;;;;;;;18.89;58.85;100259.47;2078139;28;19991;-48
2021/10/12 02:30:06;;;;;;;;;;;;;;;18.88;58.82;100252.25;2084461;28;19912;-48
2021/10/12 02:31:06;;;;;;;;;;;;;;;18.88;58.78;100256.88;2083046;28;19928;-48
2021/10/12 02:32:06;;;;;;;;;;;;;;;18.88;58.81;100246.78;2084011;28;20322;-48
2021/10/12 02:33:07;;;;;;;;;;;;;;;18.88;58.77;100252.25;2078234;28;20704;-48
2021/10/12 02:34:07;;;;;;;;;;;;;;;18.88;58.88;100256.88;2083595;28;20322;-48
2021/10/12 02:35:08;;;;;;;;;;;;;;;18.87;58.86;100247.81;2076832;28;19924;-48
2021/10/12 02:36:08;;;;;;;;;;;;;;;18.88;58.83;100256.88;2083207;28;19912;-48
2021/10/12 02:37:08;;;;;;;;;;;;;;;18.88;58.81;100259.59;2083483;28;19917;-48
2021/10/12 02:38:10;;;;;;;;;;;;;;;18.88;58.86;100252.25;2083337;28;20197;-48
2021/10/12 02:39:10;;;;;;;;;;;;;;;18.88;58.89;100251.41;2079602;28;19916;-49
2021/10/12 02:40:10;;;;;;;;;;;;;;;18.87;58.94;100245.09;2085326;28;19947;-48
2021/10/12 02:41:11;;;;;;;;;;;;;;;18.87;58.92;100246.97;2079003;28;20436;-48
2021/10/12 02:42:11;;;;;;;;;;;;;;;18.87;58.85;100239.63;2083802;28;20106;-49
2021/10/12 02:43:11;;;;;;;;;;;;;;;18.87;58.87;100236.88;2085092;28;20388;-48
2021/10/12 02:44:11;;;;;;;;;;;;;;;18.87;58.85;100241.50;2083226;28;19917;-48
2021/10/12 02:45:12;;;;;;;;;;;;;;;18.87;58.79;100244.22;2088541;28;20647;-48
2021/10/12 02:46:12;;;;;;;;;;;;;;;18.87;58.83;100241.50;2082322;28;19927;-48
2021/10/12 02:47:12;;;;;;;;;;;;;;;18.85;58.86;100242.47;2082714;28;20242;-48
2021/10/12 02:48:13;;;;;;;;;;;;;;;18.87;58.78;100241.50;2082885;28;19917;-48
2021/10/12 02:49:13;;;;;;;;;;;;;;;18.86;58.83;100235.16;2085555;28;20349;-49
2021/10/12 02:50:13;;;;;;;;;;;;;;;18.85;58.81;100239.75;2084651;28;19923;-49
2021/10/12 02:51:15;;;;;;;;;;;;;;;18.86;58.85;100243.34;2080382;28;19919;-48
2021/10/12 02:52:15;;;;;;;;;;;;;;;18.87;58.84;100236.03;2086160;28;19905;-48
2021/10/12 02:53:17;;;;;;;;;;;;;;;18.85;58.97;100231.56;2085372;28;19956;-48
2021/10/12 02:54:18;;;;;;;;;;;;;;;18.87;58.85;100230.56;2080722;28;19920;-48
2021/10/12 02:55:18;;;;;;;;;;;;;;;18.85;58.89;100237.03;2084922;28;19964;-48
2021/10/12 02:56:19;;;;;;;;;;;;;;;18.87;58.88;100233.31;2086232;28;19966;-48
2021/10/12 02:57:19;;;;;;;;;;;;;;;18.86;58.73;100229.69;2080317;28;20006;-49
2021/10/12 02:58:19;;;;;;;;;;;;;;;18.85;58.78;100227.97;2082658;28;20613;-48
2021/10/12 02:59:20;;;;;;;;;;;;;;;18.85;58.80;100226.09;2086817;28;19912;-48
2021/10/12 03:00:20;;;;;;;;;;;;;;;18.83;58.77;100222.63;2092629;28;20215;-48
2021/10/12 03:01:20;;;;;;;;;;;;;;;18.86;58.85;100229.69;2083849;28;20040;-48
2021/10/12 03:02:21;;;;;;;;;;;;;;;18.84;58.82;100231.72;2079995;28;19917;-48
2021/10/12 03:03:21;;;;;;;;;;;;;;;18.84;58.77;100224.38;2079352;28;20102;-48
2021/10/12 03:04:21;;;;;;;;;;;;;;;18.84;58.79;100231.72;2083801;28;19924;-49
2021/10/12 03:05:22;;;;;;;;;;;;;;;18.85;58.95;100230.69;2080373;28;20777;-48
2021/10/12 03:06:22;;;;;;;;;;;;;;;18.84;58.86;100229.84;2085268;28;19917;-48
2021/10/12 03:07:22;;;;;;;;;;;;;;;18.84;58.88;100232.56;2081497;28;19924;-48
2021/10/12 03:08:23;;;;;;;;;;;;;;;18.84;58.98;100231.72;2083127;28;19966;-48
2021/10/12 03:09:23;;;;;;;;;;;;;;;18.84;58.94;100229.00;2078925;28;19913;-49
2021/10/12 03:10:23;;;;;;;;;;;;;;;18.83;58.91;100233.56;2082795;28;20307;-48
2021/10/12 03:11:24;;;;;;;;;;;;;;;18.84;58.95;100237.19;2081333;28;20326;-48
2021/10/12 03:12:24;;;;;;;;;;;;;;;18.83;58.86;100230.84;2080055;28;19924;-48
2021/10/12 03:13:25;;;;;;;;;;;;;;;18.83;58.86;100239.03;2082839;28;20031;-48
2021/10/12 03:14:25;;;;;;;;;;;;;;;18.83;58.83;100236.31;2078875;28;20543;-48
2021/10/12 03:15:25;;;;;;;;;;;;;;;18.83;58.91;100236.31;2081242;28;19917;-49
2021/10/12 03:16:25;;;;;;;;;;;;;;;18.83;58.85;100236.31;2083079;28;19909;-48
2021/10/12 03:17:26;;;;;;;;;;;;;;;18.82;58.87;100237.31;2077806;28;20430;-48
2021/10/12 03:18:30;;;;;;;;;;;;;;;18.82;58.76;100225.53;2086904;28;20051;-48
2021/10/12 03:19:30;;;;;;;;;;;;;;;18.83;58.86;100236.31;2085080;28;19939;-49
2021/10/12 03:20:31;;;;;;;;;;;;;;;18.82;58.76;100237.31;2080250;28;19905;-49
2021/10/12 03:21:36;;;;;;;;;;;;;;;18.82;58.72;100231.84;2082175;28;20023;-48
2021/10/12 03:22:37;;;;;;;;;;;;;;;18.82;58.67;100231.84;2087295;28;19927;-49
2021/10/12 03:23:37;;;;;;;;;;;;;;;18.82;58.75;100231.84;2085250;28;20462;-48
2021/10/12 03:24:38;;;;;;;;;;;;;;;18.81;58.80;100227.41;2085956;28;19916;-48
2021/10/12 03:25:38;;;;;;;;;;;;;;;18.81;58.76;100227.41;2085359;28;19943;-48
2021/10/12 03:26:39;;;;;;;;;;;;;;;18.82;58.74;100231.84;2084490;28;19939;-48
2021/10/12 03:27:39;;;;;;;;;;;;;;;18.82;58.81;100231.84;2083185;28;19913;-49
2021/10/12 03:28:39;;;;;;;;;;;;;;;18.81;58.83;100232.88;2084626;28;20030;-48
2021/10/12 03:29:40;;;;;;;;;;;;;;;18.82;58.84;100231.00;2082539;28;20179;-49
2021/10/12 03:30:40;;;;;;;;;;;;;;;18.81;58.79;100227.41;2081691;28;20335;-49
2021/10/12 03:31:41;;;;;;;;;;;;;;;18.81;58.79;100230.16;2076061;28;20550;-48
2021/10/12 03:32:41;;;;;;;;;;;;;;;18.81;58.81;100235.59;2079849;28;20433;-48
2021/10/12 03:33:42;;;;;;;;;;;;;;;18.81;58.79;100232.88;2083791;28;20542;-48
2021/10/12 03:34:42;;;;;;;;;;;;;;;18.80;58.77;100239.31;2083184;28;20062;-48
2021/10/12 03:35:49;;;;;;;;;;;;;;;18.82;58.81;100236.47;2085236;28;20515;-48
2021/10/12 03:36:50;;;;;;;;;;;;;;;18.81;58.80;100230.16;2080598;28;19916;-48
2021/10/12 03:37:50;;;;;;;;;;;;;;;18.80;58.93;100228.41;2083753;28;19938;-48
2021/10/12 03:38:50;;;;;;;;;;;;;;;18.81;58.88;100230.16;2084201;28;19916;-49
2021/10/12 03:39:51;;;;;;;;;;;;;;;18.80;58.71;100228.41;2085001;28;19908;-48
2021/10/12 03:40:51;;;;;;;;;;;;;;;18.80;58.81;100227.53;2079690;28;19918;-48
2021/10/12 03:41:52;;;;;;;;;;;;;;;18.80;58.91;100227.53;2083459;28;19959;-48
2021/10/12 03:42:52;;;;;;;;;;;;;;;18.80;58.82;100236.59;2084670;28;19909;-48
2021/10/12 03:43:52;;;;;;;;;;;;;;;18.80;58.89;100231.13;2084712;28;20620;-48
2021/10/12 03:44:53;;;;;;;;;;;;;;;18.80;58.90;100228.41;2077657;28;20111;-49
2021/10/12 03:45:54;;;;;;;;;;;;;;;18.80;58.83;100239.31;2083793;28;19925;-49
2021/10/12 03:46:54;;;;;;;;;;;;;;;18.80;58.84;100235.75;2087053;28;20295;-46
2021/10/12 03:47:54;;;;;;;;;;;;;;;18.80;58.80;100233.88;2080479;28;19936;-46
2021/10/12 03:48:55;;;;;;;;;;;;;;;18.80;58.83;100236.59;2079490;28;20404;-47
2021/10/12 03:49:55;;;;;;;;;;;;;;;18.79;58.85;100234.88;2078333;28;19938;-46
2021/10/12 03:50:55;;;;;;;;;;;;;;;18.80;58.81;100233.00;2081250;28;20219;-46
2021/10/12 03:51:56;;;;;;;;;;;;;;;18.80;58.89;100233.88;2079954;28;19922;-46
2021/10/12 03:52:56;;;;;;;;;;;;;;;18.79;58.81;100232.16;2085389;28;20019;-46
2021/10/12 03:53:56;;;;;;;;;;;;;;;18.80;58.85;100239.31;2084449;28;19928;-46
2021/10/12 03:54:56;;;;;;;;;;;;;;;18.80;58.84;100233.00;2084999;28;20332;-46
2021/10/12 03:55:57;;;;;;;;;;;;;;;18.80;58.88;100238.47;2084726;28;19912;-46
2021/10/12 03:56:57;;;;;;;;;;;;;;;18.79;58.77;100234.00;2086136;28;19916;-47
2021/10/12 03:57:57;;;;;;;;;;;;;;;18.79;58.89;100232.16;2085857;28;19912;-46
2021/10/12 03:58:58;;;;;;;;;;;;;;;18.78;58.84;100235.88;2084363;28;19908;-47
2021/10/12 03:59:58;;;;;;;;;;;;;;;18.79;58.66;100231.25;2087269;28;20046;-46
2021/10/12 04:00:58;;;;;;;;;;;;;;;18.79;58.81;100234.88;2084893;28;19908;-46
2021/10/12 04:02:00;;;;;;;;;;;;;;;18.79;58.82;100234.88;2084942;28;20019;-46
2021/10/12 04:03:00;;;;;;;;;;;;;;;18.78;58.99;100233.16;2084623;28;20300;-46
2021/10/12 04:04:01;;;;;;;;;;;;;;;18.79;58.96;100234.00;2087921;28;20355;-46
2021/10/12 04:05:01;;;;;;;;;;;;;;;18.78;59.08;100235.88;2084886;28;19920;-46
2021/10/12 04:06:01;;;;;;;;;;;;;;;18.79;58.94;100245.81;2085572;28;19951;-47
2021/10/12 04:07:02;;;;;;;;;;;;;;;18.78;58.92;100241.34;2084195;28;20330;-46
2021/10/12 04:08:02;;;;;;;;;;;;;;;18.78;58.77;100244.06;2084716;28;19966;-46
2021/10/12 04:09:02;;;;;;;;;;;;;;;18.78;58.76;100252.25;2085673;28;19935;-46
2021/10/12 04:10:03;;;;;;;;;;;;;;;18.78;58.79;100249.53;2086058;28;19912;-46
2021/10/12 04:11:03;;;;;;;;;;;;;;;18.78;58.69;100244.06;2084655;28;19912;-47
2021/10/12 04:12:04;;;;;;;;;;;;;;;18.78;58.78;100238.59;2084736;28;20003;-46
2021/10/12 04:13:05;;;;;;;;;;;;;;;18.78;58.86;100240.47;2084961;28;19916;-46
2021/10/12 04:14:05;;;;;;;;;;;;;;;18.78;58.68;100240.47;2085475;28;19948;-46
2021/10/12 04:15:06;;;;;;;;;;;;;;;18.78;58.91;100246.78;2084174;28;19955;-46
2021/10/12 04:16:06;;;;;;;;;;;;;;;18.78;58.84;100246.78;2077624;28;19917;-46
2021/10/12 04:17:06;;;;;;;;;;;;;;;18.78;58.85;100246.78;2084081;28;19943;-46
2021/10/12 04:18:09;;;;;;;;;;;;;;;18.78;58.84;100245.94;2085520;28;20820;-46
2021/10/12 04:19:10;;;;;;;;;;;;;;;18.78;58.88;100251.41;2084554;28;19912;-46
2021/10/12 04:20:10;;;;;;;;;;;;;;;18.78;58.83;100249.53;2085285;28;20551;-46
2021/10/12 04:21:11;;;;;;;;;;;;;;;18.77;58.71;100257.88;2083823;28;20335;-46
2021/10/12 04:22:11;;;;;;;;;;;;;;;18.76;58.71;100254.25;2083619;28;20049;-46
2021/10/12 04:23:12;;;;;;;;;;;;;;;18.77;58.78;100261.47;2083521;28;20359;-46
2021/10/12 04:24:13;;;;;;;;;;;;;;;18.77;58.86;100256.00;2079493;28;19913;-46
2021/10/12 04:25:13;;;;;;;;;;;;;;;18.77;58.72;100255.16;2086334;28;19952;-46
2021/10/12 04:26:15;;;;;;;;;;;;;;;18.77;58.83;100256.00;2082034;28;20353;-47
2021/10/12 04:27:17;;;;;;;;;;;;;;;18.76;58.86;100251.53;2078908;28;20375;-47
2021/10/12 04:28:17;;;;;;;;;;;;;;;18.77;58.85;100252.41;2078344;28;19963;-47
2021/10/12 04:29:17;;;;;;;;;;;;;;;18.77;58.83;100250.53;2078296;28;20220;-46
2021/10/12 04:30:18;;;;;;;;;;;;;;;18.78;58.79;100248.66;2079040;28;19924;-46
2021/10/12 04:31:18;;;;;;;;;;;;;;;18.76;58.78;100251.53;2080861;28;19967;-47
2021/10/12 04:32:19;;;;;;;;;;;;;;;18.76;58.90;100246.06;2082318;28;19916;-46
2021/10/12 04:33:19;;;;;;;;;;;;;;;18.77;58.79;100245.09;2084915;28;19917;-47
2021/10/12 04:34:19;;;;;;;;;;;;;;;18.75;58.85;100247.06;2081041;28;19928;-46
2021/10/12 04:35:20;;;;;;;;;;;;;;;18.76;58.75;100254.25;2078054;28;19963;-46
2021/10/12 04:36:20;;;;;;;;;;;;;;;18.76;58.75;100254.25;2083481;28;20266;-46
2021/10/12 04:37:20;;;;;;;;;;;;;;;18.76;58.77;100248.81;2085048;28;20466;-46
2021/10/12 04:38:21;;;;;;;;;;;;;;;18.75;58.82;100249.78;2092561;28;19919;-46
2021/10/12 04:39:21;;;;;;;;;;;;;;;18.76;58.85;100247.94;2076091;28;19994;-46
2021/10/12 04:40:23;;;;;;;;;;;;;;;18.76;58.72;100253.41;2076494;28;19916;-46
2021/10/12 04:41:23;;;;;;;;;;;;;;;18.76;58.80;100254.25;2077865;28;19928;-46
2021/10/12 04:42:24;;;;;;;;;;;;;;;18.76;58.85;100248.81;2076632;28;19928;-46
2021/10/12 04:43:24;;;;;;;;;;;;;;;18.75;58.79;100252.53;2086020;28;19912;-47
2021/10/12 04:44:29;;;;;;;;;;;;;;;18.75;58.82;100249.78;2078554;28;20488;-46
2021/10/12 04:45:30;;;;;;;;;;;;;;;18.75;58.82;100252.53;2079494;28;19978;-47
2021/10/12 04:46:31;;;;;;;;;;;;;;;18.74;58.91;100250.81;2075577;28;19975;-46
2021/10/12 04:47:31;;;;;;;;;;;;;;;18.74;58.78;100250.81;2078984;28;20064;-47
2021/10/12 04:48:31;;;;;;;;;;;;;;;18.75;58.72;100248.94;2080372;28;20437;-47
2021/10/12 04:49:32;;;;;;;;;;;;;;;18.73;58.75;100249.06;2079241;28;19967;-46
2021/10/12 04:50:32;;;;;;;;;;;;;;;18.74;58.84;100250.81;2078651;28;20687;-47
2021/10/12 04:51:33;;;;;;;;;;;;;;;18.74;58.72;100248.09;2081927;28;19951;-46
2021/10/12 04:52:33;;;;;;;;;;;;;;;18.74;58.91;100249.91;2081128;28;19917;-47
2021/10/12 04:53:33;;;;;;;;;;;;;;;18.74;58.91;100245.34;2083533;28;20199;-46
2021/10/12 04:54:34;;;;;;;;;;;;;;;18.74;58.91;100250.81;2077358;28;20349;-46
2021/10/12 04:55:35;;;;;;;;;;;;;;;18.74;58.92;100255.38;2079790;28;19956;-46
2021/10/12 04:56:35;;;;;;;;;;;;;;;18.73;58.75;100254.53;2078347;28;20749;-46
2021/10/12 04:57:36;;;;;;;;;;;;;;;18.74;58.82;100250.81;2082481;28;20377;-46
2021/10/12 04:58:36;;;;;;;;;;;;;;;18.73;58.92;100254.53;2082290;28;20321;-46
2021/10/12 04:59:36;;;;;;;;;;;;;;;18.73;58.71;100254.53;2084285;28;20397;-46
2021/10/12 05:00:37;;;;;;;;;;;;;;;18.73;58.83;100248.22;2081536;28;20524;-47
2021/10/12 05:01:37;;;;;;;;;;;;;;;18.73;58.89;100242.75;2082406;28;19952;-46
2021/10/12 05:02:38;;;;;;;;;;;;;;;18.72;58.83;100252.81;2082628;28;19925;-46
2021/10/12 05:03:38;;;;;;;;;;;;;;;18.73;58.72;100254.53;2083542;28;20405;-46
2021/10/12 05:04:38;;;;;;;;;;;;;;;18.72;58.80;100252.81;2084321;28;20184;-42
2021/10/12 05:05:39;;;;;;;;;;;;;;;18.73;58.89;100254.53;2080290;28;19916;-42
2021/10/12 05:06:39;;;;;;;;;;;;;;;18.73;58.83;100248.22;2081928;28;19917;-41
2021/10/12 05:07:39;;;;;;;;;;;;;;;18.72;58.73;100252.81;2084638;28;19973;-41
2021/10/12 05:08:40;;;;;;;;;;;;;;;18.73;58.80;100248.22;2083820;28;19917;-42
2021/10/12 05:09:40;;;;;;;;;;;;;;;18.71;58.70;100248.34;2085112;28;20254;-42
2021/10/12 05:10:40;;;;;;;;;;;;;;;18.72;58.80;100247.34;2084242;28;19916;-42